Ravenna, Ohio
Current Conditions -  °F | °C
As of 3:35 PM on Monday 26 Jan 2015 (Local Time) from KPOV Reporting Station
Overcast Overcast  
Wind Chill: -10°   Ceiling: 1500
Heat Index: -5°   Visibility: 10mi
Dew Point: -9°   Wind: 10mph
Humidity: 73%   Direction: 350°N
Pressure: 29.78"   Gusts: NA
Location:  41.16°N, 81.24°W
Report Text: KPOV 262035Z AUTO 35009KT 10SM OVC015 M05/M09 A2978 RMK AO2 T10461087
Loading
Personal Weather Stations






























Interactive Weather Map New forecast layout! Learn more

10-Day Weather Forecast

Advertisements
Track Severe Weather on mobile